sensor_id;sensor_type;location;lat;lon;timestamp;temperature;humidity
13589;DHT22;6865;52.552;13.434;2023-01-13T00:01:07;9.40;99.90
13589;DHT22;6865;52.552;13.434;2023-01-13T00:03:35;9.40;99.90
13589;DHT22;6865;52.552;13.434;2023-01-13T00:06:02;9.40;99.90
13589;DHT22;6865;52.552;13.434;2023-01-13T00:08:29;9.50;99.90
13589;DHT22;6865;52.552;13.434;2023-01-13T00:10:55;9.50;99.90
13589;DHT22;6865;52.552;13.434;2023-01-13T00:13:22;9.50;99.90
13589;DHT22;6865;52.552;13.434;2023-01-13T00:16:07;9.50;99.90
13589;DHT22;6865;52.552;13.434;2023-01-13T00:18:35;9.60;99.90
13589;DHT22;6865;52.552;13.434;2023-01-13T00:21:20;9.60;99.90
13589;DHT22;6865;52.552;13.434;2023-01-13T00:23:47;9.60;99.90
13589;DHT22;6865;52.552;13.434;2023-01-13T00:26:17;9.50;99.90
13589;DHT22;6865;52.552;13.434;2023-01-13T00:28:44;9.60;99.90
13589;DHT22;6865;52.552;13.434;2023-01-13T00:31:17;9.50;99.90
13589;DHT22;6865;52.552;13.434;2023-01-13T00:33:44;9.50;99.90
13589;DHT22;6865;52.552;13.434;2023-01-13T00:36:13;9.50;99.90
13589;DHT22;6865;52.552;13.434;2023-01-13T00:38:40;9.50;99.90
13589;DHT22;6865;52.552;13.434;2023-01-13T00:41:13;9.50;99.90
13589;DHT22;6865;52.552;13.434;2023-01-13T00:43:40;9.60;99.90
13589;DHT22;6865;52.552;13.434;2023-01-13T00:46:09;9.50;99.90
13589;DHT22;6865;52.552;13.434;2023-01-13T00:48:38;9.50;99.90
13589;DHT22;6865;52.552;13.434;2023-01-13T00:51:11;9.50;99.90
13589;DHT22;6865;52.552;13.434;2023-01-13T00:53:40;9.50;99.90
13589;DHT22;6865;52.552;13.434;2023-01-13T00:56:12;9.50;99.90
13589;DHT22;6865;52.552;13.434;2023-01-13T00:58:50;9.60;99.90
13589;DHT22;6865;52.552;13.434;2023-01-13T01:01:21;9.50;99.90
13589;DHT22;6865;52.552;13.434;2023-01-13T01:03:52;9.50;99.90
13589;DHT22;6865;52.552;13.434;2023-01-13T01:06:22;9.50;99.90
13589;DHT22;6865;52.552;13.434;2023-01-13T01:08:50;9.50;99.90
13589;DHT22;6865;52.552;13.434;2023-01-13T01:11:20;9.60;99.90
13589;DHT22;6865;52.552;13.434;2023-01-13T01:13:49;9.60;99.90
13589;DHT22;6865;52.552;13.434;2023-01-13T01:16:20;9.50;99.90
13589;DHT22;6865;52.552;13.434;2023-01-13T01:18:49;9.60;99.90
13589;DHT22;6865;52.552;13.434;2023-01-13T01:21:17;9.50;99.90
13589;DHT22;6865;52.552;13.434;2023-01-13T01:23:43;9.60;99.90
13589;DHT22;6865;52.552;13.434;2023-01-13T01:26:20;9.60;99.90
13589;DHT22;6865;52.552;13.434;2023-01-13T01:28:47;9.60;99.90
13589;DHT22;6865;52.552;13.434;2023-01-13T01:31:17;9.60;99.90
13589;DHT22;6865;52.552;13.434;2023-01-13T01:33:44;9.60;99.90
13589;DHT22;6865;52.552;13.434;2023-01-13T01:36:17;9.50;99.90
13589;DHT22;6865;52.552;13.434;2023-01-13T01:38:44;9.60;99.90
13589;DHT22;6865;52.552;13.434;2023-01-13T01:41:20;9.60;99.90
13589;DHT22;6865;52.552;13.434;2023-01-13T01:43:58;9.60;99.90
13589;DHT22;6865;52.552;13.434;2023-01-13T01:46:30;9.60;99.90
13589;DHT22;6865;52.552;13.434;2023-01-13T01:51:47;9.60;99.90
13589;DHT22;6865;52.552;13.434;2023-01-13T01:54:19;9.60;99.90
13589;DHT22;6865;52.552;13.434;2023-01-13T01:56:48;9.70;99.90
13589;DHT22;6865;52.552;13.434;2023-01-13T01:59:15;9.70;99.90
13589;DHT22;6865;52.552;13.434;2023-01-13T02:01:43;9.80;99.90
13589;DHT22;6865;52.552;13.434;2023-01-13T02:04:14;9.70;99.90
13589;DHT22;6865;52.552;13.434;2023-01-13T02:06:43;9.80;99.90
13589;DHT22;6865;52.552;13.434;2023-01-13T02:09:11;9.70;99.90
13589;DHT22;6865;52.552;13.434;2023-01-13T02:11:38;9.70;99.90
13589;DHT22;6865;52.552;13.434;2023-01-13T02:14:26;9.30;99.90
13589;DHT22;6865;52.552;13.434;2023-01-13T02:23:20;9.70;99.90
13589;DHT22;6865;52.552;13.434;2023-01-13T02:26:48;9.70;99.90
13589;DHT22;6865;52.552;13.434;2023-01-13T02:33:20;9.70;99.90
13589;DHT22;6865;52.552;13.434;2023-01-13T02:36:04;9.50;99.90
13589;DHT22;6865;52.552;13.434;2023-01-13T02:38:41;9.70;99.90
13589;DHT22;6865;52.552;13.434;2023-01-13T02:44:44;9.70;99.90
13589;DHT22;6865;52.552;13.434;2023-01-13T02:47:21;9.70;99.90
13589;DHT22;6865;52.552;13.434;2023-01-13T02:49:52;9.70;99.90
13589;DHT22;6865;52.552;13.434;2023-01-13T02:52:33;9.70;99.90
13589;DHT22;6865;52.552;13.434;2023-01-13T02:55:11;9.70;99.90
13589;DHT22;6865;52.552;13.434;2023-01-13T02:57:40;9.70;99.90
13589;DHT22;6865;52.552;13.434;2023-01-13T03:00:10;9.80;99.90
13589;DHT22;6865;52.552;13.434;2023-01-13T03:02:38;9.80;99.90
13589;DHT22;6865;52.552;13.434;2023-01-13T03:05:05;9.80;99.90
13589;DHT22;6865;52.552;13.434;2023-01-13T03:07:45;9.80;99.90
13589;DHT22;6865;52.552;13.434;2023-01-13T03:10:47;9.70;99.90
13589;DHT22;6865;52.552;13.434;2023-01-13T03:13:31;9.70;99.90
13589;DHT22;6865;52.552;13.434;2023-01-13T03:16:22;9.70;99.90
13589;DHT22;6865;52.552;13.434;2023-01-13T03:22:00;9.70;99.90
13589;DHT22;6865;52.552;13.434;2023-01-13T03:24:36;9.70;99.90
13589;DHT22;6865;52.552;13.434;2023-01-13T03:27:16;9.70;99.90
13589;DHT22;6865;52.552;13.434;2023-01-13T03:29:49;9.70;99.90
13589;DHT22;6865;52.552;13.434;2023-01-13T03:32:39;9.80;99.90
13589;DHT22;6865;52.552;13.434;2023-01-13T03:35:32;9.80;99.90
13589;DHT22;6865;52.552;13.434;2023-01-13T03:38:06;9.80;99.90
13589;DHT22;6865;52.552;13.434;2023-01-13T03:40:41;9.70;99.90
13589;DHT22;6865;52.552;13.434;2023-01-13T03:43:13;9.70;99.90
13589;DHT22;6865;52.552;13.434;2023-01-13T03:46:06;9.70;99.90
13589;DHT22;6865;52.552;13.434;2023-01-13T03:48:34;9.70;99.90
13589;DHT22;6865;52.552;13.434;2023-01-13T03:51:11;9.70;99.90
13589;DHT22;6865;52.552;13.434;2023-01-13T03:53:46;9.40;99.90
13589;DHT22;6865;52.552;13.434;2023-01-13T03:56:36;9.50;99.90
13589;DHT22;6865;52.552;13.434;2023-01-13T03:59:05;9.30;99.90
13589;DHT22;6865;52.552;13.434;2023-01-13T04:01:49;9.60;99.90
13589;DHT22;6865;52.552;13.434;2023-01-13T04:04:33;9.70;99.90
13589;DHT22;6865;52.552;13.434;2023-01-13T04:07:16;9.70;99.90
13589;DHT22;6865;52.552;13.434;2023-01-13T04:09:49;9.60;99.90
13589;DHT22;6865;52.552;13.434;2023-01-13T04:12:30;9.60;99.90
13589;DHT22;6865;52.552;13.434;2023-01-13T04:15:22;9.60;99.90
13589;DHT22;6865;52.552;13.434;2023-01-13T04:17:50;9.60;99.90
13589;DHT22;6865;52.552;13.434;2023-01-13T04:20:17;9.70;99.90
13589;DHT22;6865;52.552;13.434;2023-01-13T04:22:43;9.60;99.90
13589;DHT22;6865;52.552;13.434;2023-01-13T04:25:10;9.60;99.90
13589;DHT22;6865;52.552;13.434;2023-01-13T04:27:37;9.60;99.90
13589;DHT22;6865;52.552;13.434;2023-01-13T04:30:04;9.60;99.90
13589;DHT22;6865;52.552;13.434;2023-01-13T04:32:31;9.60;99.90
13589;DHT22;6865;52.552;13.434;2023-01-13T04:34:57;9.50;99.90
13589;DHT22;6865;52.552;13.434;2023-01-13T04:37:24;9.50;99.90
13589;DHT22;6865;52.552;13.434;2023-01-13T04:39:50;9.40;99.90
13589;DHT22;6865;52.552;13.434;2023-01-13T04:42:17;9.40;99.90
13589;DHT22;6865;52.552;13.434;2023-01-13T04:44:43;9.40;99.90
13589;DHT22;6865;52.552;13.434;2023-01-13T04:47:10;9.40;99.90
13589;DHT22;6865;52.552;13.434;2023-01-13T04:49:37;9.40;99.90
13589;DHT22;6865;52.552;13.434;2023-01-13T04:52:03;9.40;99.90
13589;DHT22;6865;52.552;13.434;2023-01-13T04:54:32;9.40;99.90
13589;DHT22;6865;52.552;13.434;2023-01-13T04:56:58;9.40;99.90
13589;DHT22;6865;52.552;13.434;2023-01-13T04:59:25;9.40;99.90
13589;DHT22;6865;52.552;13.434;2023-01-13T05:01:52;9.30;99.90
13589;DHT22;6865;52.552;13.434;2023-01-13T05:04:18;9.40;99.90
13589;DHT22;6865;52.552;13.434;2023-01-13T05:06:45;9.50;99.90
13589;DHT22;6865;52.552;13.434;2023-01-13T05:09:12;9.50;99.90
13589;DHT22;6865;52.552;13.434;2023-01-13T05:11:41;9.40;99.90
13589;DHT22;6865;52.552;13.434;2023-01-13T05:14:26;9.40;99.90
13589;DHT22;6865;52.552;13.434;2023-01-13T05:17:18;9.30;99.90
13589;DHT22;6865;52.552;13.434;2023-01-13T05:19:45;9.50;99.90
13589;DHT22;6865;52.552;13.434;2023-01-13T05:22:14;9.50;99.90
13589;DHT22;6865;52.552;13.434;2023-01-13T05:24:59;9.60;99.90
13589;DHT22;6865;52.552;13.434;2023-01-13T05:27:44;9.60;99.90
13589;DHT22;6865;52.552;13.434;2023-01-13T05:30:11;9.60;99.90
13589;DHT22;6865;52.552;13.434;2023-01-13T05:32:39;9.60;99.90
13589;DHT22;6865;52.552;13.434;2023-01-13T05:35:05;9.60;99.90
13589;DHT22;6865;52.552;13.434;2023-01-13T05:37:32;9.60;99.90
13589;DHT22;6865;52.552;13.434;2023-01-13T05:39:59;9.70;99.90
13589;DHT22;6865;52.552;13.434;2023-01-13T05:42:44;9.60;99.90
13589;DHT22;6865;52.552;13.434;2023-01-13T05:45:30;9.50;99.90
13589;DHT22;6865;52.552;13.434;2023-01-13T05:47:57;9.40;99.90
13589;DHT22;6865;52.552;13.434;2023-01-13T05:50:24;9.40;99.90
13589;DHT22;6865;52.552;13.434;2023-01-13T05:52:50;9.30;99.90
13589;DHT22;6865;52.552;13.434;2023-01-13T05:55:17;9.30;99.90
13589;DHT22;6865;52.552;13.434;2023-01-13T05:57:43;9.20;99.90
13589;DHT22;6865;52.552;13.434;2023-01-13T06:00:10;9.20;99.90
13589;DHT22;6865;52.552;13.434;2023-01-13T06:02:37;9.20;99.90
13589;DHT22;6865;52.552;13.434;2023-01-13T06:05:04;9.20;99.90
13589;DHT22;6865;52.552;13.434;2023-01-13T06:07:30;9.20;99.90
13589;DHT22;6865;52.552;13.434;2023-01-13T06:09:57;9.20;99.90
13589;DHT22;6865;52.552;13.434;2023-01-13T06:12:23;9.80;99.90
13589;DHT22;6865;52.552;13.434;2023-01-13T06:14:50;7.80;99.90
13589;DHT22;6865;52.552;13.434;2023-01-13T06:17:17;9.00;99.90
13589;DHT22;6865;52.552;13.434;2023-01-13T06:19:43;9.20;99.90
13589;DHT22;6865;52.552;13.434;2023-01-13T06:22:14;9.20;99.90
13589;DHT22;6865;52.552;13.434;2023-01-13T06:24:42;9.20;99.90
13589;DHT22;6865;52.552;13.434;2023-01-13T06:27:11;9.30;99.90
13589;DHT22;6865;52.552;13.434;2023-01-13T06:29:38;9.20;99.90
13589;DHT22;6865;52.552;13.434;2023-01-13T06:32:08;9.20;99.90
13589;DHT22;6865;52.552;13.434;2023-01-13T06:34:39;9.20;99.90
13589;DHT22;6865;52.552;13.434;2023-01-13T06:37:06;9.30;99.90
13589;DHT22;6865;52.552;13.434;2023-01-13T06:39:33;9.40;99.90
13589;DHT22;6865;52.552;13.434;2023-01-13T06:42:02;9.50;99.90
13589;DHT22;6865;52.552;13.434;2023-01-13T06:44:47;9.40;99.90
13589;DHT22;6865;52.552;13.434;2023-01-13T06:47:14;9.30;99.90
13589;DHT22;6865;52.552;13.434;2023-01-13T06:49:41;9.30;99.90
13589;DHT22;6865;52.552;13.434;2023-01-13T06:52:07;9.40;99.90
13589;DHT22;6865;52.552;13.434;2023-01-13T06:54:34;9.40;99.90
13589;DHT22;6865;52.552;13.434;2023-01-13T06:57:01;9.30;99.90
13589;DHT22;6865;52.552;13.434;2023-01-13T06:59:27;9.40;99.90
13589;DHT22;6865;52.552;13.434;2023-01-13T07:01:54;9.40;99.90
13589;DHT22;6865;52.552;13.434;2023-01-13T07:04:21;9.40;99.90
13589;DHT22;6865;52.552;13.434;2023-01-13T07:06:48;9.30;99.90
13589;DHT22;6865;52.552;13.434;2023-01-13T07:09:14;9.30;99.90
13589;DHT22;6865;52.552;13.434;2023-01-13T07:11:41;9.40;99.90
13589;DHT22;6865;52.552;13.434;2023-01-13T07:14:07;9.40;99.90
13589;DHT22;6865;52.552;13.434;2023-01-13T07:16:53;9.30;99.90
13589;DHT22;6865;52.552;13.434;2023-01-13T07:19:19;9.40;99.90
13589;DHT22;6865;52.552;13.434;2023-01-13T07:21:51;9.40;99.90
13589;DHT22;6865;52.552;13.434;2023-01-13T07:24:18;9.50;99.90
13589;DHT22;6865;52.552;13.434;2023-01-13T07:26:45;9.60;99.90
13589;DHT22;6865;52.552;13.434;2023-01-13T07:29:12;9.70;99.90
13589;DHT22;6865;52.552;13.434;2023-01-13T07:31:38;9.70;99.90
13589;DHT22;6865;52.552;13.434;2023-01-13T07:34:06;9.50;99.90
13589;DHT22;6865;52.552;13.434;2023-01-13T07:36:32;9.70;99.90
13589;DHT22;6865;52.552;13.434;2023-01-13T07:38:59;9.60;99.90
13589;DHT22;6865;52.552;13.434;2023-01-13T07:41:26;9.60;99.90
13589;DHT22;6865;52.552;13.434;2023-01-13T07:44:11;9.70;99.90
13589;DHT22;6865;52.552;13.434;2023-01-13T07:46:38;9.60;99.90
13589;DHT22;6865;52.552;13.434;2023-01-13T07:49:07;9.60;99.90
13589;DHT22;6865;52.552;13.434;2023-01-13T07:51:35;9.60;99.90
13589;DHT22;6865;52.552;13.434;2023-01-13T07:54:03;9.70;99.90
13589;DHT22;6865;52.552;13.434;2023-01-13T07:56:30;9.70;99.90
13589;DHT22;6865;52.552;13.434;2023-01-13T07:58:58;9.70;99.90
13589;DHT22;6865;52.552;13.434;2023-01-13T08:01:25;9.70;99.90
13589;DHT22;6865;52.552;13.434;2023-01-13T08:03:54;9.80;99.90
13589;DHT22;6865;52.552;13.434;2023-01-13T08:06:21;9.70;99.90
13589;DHT22;6865;52.552;13.434;2023-01-13T08:08:48;9.70;99.90
13589;DHT22;6865;52.552;13.434;2023-01-13T08:11:14;9.70;99.90
13589;DHT22;6865;52.552;13.434;2023-01-13T08:13:41;9.30;99.90
13589;DHT22;6865;52.552;13.434;2023-01-13T08:16:10;9.70;99.90
13589;DHT22;6865;52.552;13.434;2023-01-13T08:18:38;9.70;99.90
13589;DHT22;6865;52.552;13.434;2023-01-13T08:21:08;9.80;99.90
13589;DHT22;6865;52.552;13.434;2023-01-13T08:23:35;9.90;99.90
13589;DHT22;6865;52.552;13.434;2023-01-13T08:26:07;9.90;99.90
13589;DHT22;6865;52.552;13.434;2023-01-13T08:28:34;9.90;99.90
13589;DHT22;6865;52.552;13.434;2023-01-13T08:31:04;10.00;99.90
13589;DHT22;6865;52.552;13.434;2023-01-13T08:33:31;10.00;99.90
13589;DHT22;6865;52.552;13.434;2023-01-13T08:36:02;10.10;99.90
13589;DHT22;6865;52.552;13.434;2023-01-13T08:38:28;9.90;99.90
13589;DHT22;6865;52.552;13.434;2023-01-13T08:40:55;9.90;99.90
13589;DHT22;6865;52.552;13.434;2023-01-13T08:43:21;9.70;99.90
13589;DHT22;6865;52.552;13.434;2023-01-13T08:45:59;9.60;99.90
13589;DHT22;6865;52.552;13.434;2023-01-13T08:48:26;9.60;99.90
13589;DHT22;6865;52.552;13.434;2023-01-13T08:51:07;9.50;99.90
13589;DHT22;6865;52.552;13.434;2023-01-13T08:53:34;9.50;99.90
13589;DHT22;6865;52.552;13.434;2023-01-13T08:56:02;9.50;99.90
13589;DHT22;6865;52.552;13.434;2023-01-13T08:58:31;9.40;99.90
13589;DHT22;6865;52.552;13.434;2023-01-13T09:01:03;9.40;99.90
13589;DHT22;6865;52.552;13.434;2023-01-13T09:03:31;9.40;99.90
13589;DHT22;6865;52.552;13.434;2023-01-13T09:05:57;9.40;99.90
13589;DHT22;6865;52.552;13.434;2023-01-13T09:08:24;9.50;99.90
13589;DHT22;6865;52.552;13.434;2023-01-13T09:10:50;9.40;99.90
13589;DHT22;6865;52.552;13.434;2023-01-13T09:13:17;9.50;99.90
13589;DHT22;6865;52.552;13.434;2023-01-13T09:15:45;9.50;99.90
13589;DHT22;6865;52.552;13.434;2023-01-13T09:18:13;9.50;99.90
13589;DHT22;6865;52.552;13.434;2023-01-13T09:20:39;9.60;99.90
13589;DHT22;6865;52.552;13.434;2023-01-13T09:23:07;9.60;99.90
13589;DHT22;6865;52.552;13.434;2023-01-13T09:25:36;9.50;99.90
13589;DHT22;6865;52.552;13.434;2023-01-13T09:28:03;9.40;99.90
13589;DHT22;6865;52.552;13.434;2023-01-13T09:30:30;9.40;99.90
13589;DHT22;6865;52.552;13.434;2023-01-13T09:32:58;9.50;99.90
13589;DHT22;6865;52.552;13.434;2023-01-13T09:35:43;9.60;99.90
13589;DHT22;6865;52.552;13.434;2023-01-13T09:38:10;9.60;99.90
13589;DHT22;6865;52.552;13.434;2023-01-13T09:40:38;9.60;99.90
13589;DHT22;6865;52.552;13.434;2023-01-13T09:43:20;9.80;99.90
13589;DHT22;6865;52.552;13.434;2023-01-13T09:46:15;9.60;99.90
13589;DHT22;6865;52.552;13.434;2023-01-13T09:49:02;9.60;99.90
13589;DHT22;6865;52.552;13.434;2023-01-13T09:51:35;9.40;99.90
13589;DHT22;6865;52.552;13.434;2023-01-13T09:54:11;9.60;99.90
13589;DHT22;6865;52.552;13.434;2023-01-13T09:56:38;9.60;99.90
13589;DHT22;6865;52.552;13.434;2023-01-13T09:59:09;9.60;99.90
13589;DHT22;6865;52.552;13.434;2023-01-13T10:01:57;9.50;99.90
13589;DHT22;6865;52.552;13.434;2023-01-13T10:04:25;9.50;99.90
13589;DHT22;6865;52.552;13.434;2023-01-13T10:06:58;9.50;99.90
13589;DHT22;6865;52.552;13.434;2023-01-13T10:09:48;9.50;99.90
13589;DHT22;6865;52.552;13.434;2023-01-13T10:12:21;9.50;99.90
13589;DHT22;6865;52.552;13.434;2023-01-13T10:15:16;9.40;99.90
13589;DHT22;6865;52.552;13.434;2023-01-13T10:17:55;9.30;99.90
13589;DHT22;6865;52.552;13.434;2023-01-13T10:23:50;9.30;99.90
13589;DHT22;6865;52.552;13.434;2023-01-13T10:26:23;9.30;99.90
13589;DHT22;6865;52.552;13.434;2023-01-13T10:28:54;9.50;99.90
13589;DHT22;6865;52.552;13.434;2023-01-13T10:31:23;9.40;99.90
13589;DHT22;6865;52.552;13.434;2023-01-13T10:34:00;9.30;99.90
13589;DHT22;6865;52.552;13.434;2023-01-13T10:36:29;9.30;99.90
13589;DHT22;6865;52.552;13.434;2023-01-13T10:39:08;9.30;99.90
13589;DHT22;6865;52.552;13.434;2023-01-13T10:41:35;9.30;99.90
13589;DHT22;6865;52.552;13.434;2023-01-13T10:44:04;9.30;99.90
13589;DHT22;6865;52.552;13.434;2023-01-13T10:46:50;9.40;99.90
13589;DHT22;6865;52.552;13.434;2023-01-13T10:49:35;9.40;99.90
13589;DHT22;6865;52.552;13.434;2023-01-13T10:52:24;9.50;99.90
13589;DHT22;6865;52.552;13.434;2023-01-13T10:54:52;9.50;99.90
13589;DHT22;6865;52.552;13.434;2023-01-13T10:57:22;9.40;99.90
13589;DHT22;6865;52.552;13.434;2023-01-13T10:59:49;9.40;99.90
13589;DHT22;6865;52.552;13.434;2023-01-13T11:02:28;9.50;99.90
13589;DHT22;6865;52.552;13.434;2023-01-13T11:07:38;9.40;99.90
13589;DHT22;6865;52.552;13.434;2023-01-13T11:12:43;9.60;99.90
13589;DHT22;6865;52.552;13.434;2023-01-13T11:15:17;9.60;99.90
13589;DHT22;6865;52.552;13.434;2023-01-13T11:17:57;9.70;99.90
13589;DHT22;6865;52.552;13.434;2023-01-13T11:20:33;9.70;99.90
13589;DHT22;6865;52.552;13.434;2023-01-13T11:23:12;9.70;99.90
13589;DHT22;6865;52.552;13.434;2023-01-13T11:25:43;9.80;99.90
13589;DHT22;6865;52.552;13.434;2023-01-13T11:30:59;9.80;99.90
13589;DHT22;6865;52.552;13.434;2023-01-13T11:33:40;9.80;99.90
13589;DHT22;6865;52.552;13.434;2023-01-13T11:36:15;9.80;99.90
13589;DHT22;6865;52.552;13.434;2023-01-13T11:38:51;9.80;99.90
13589;DHT22;6865;52.552;13.434;2023-01-13T11:41:29;9.80;99.90
13589;DHT22;6865;52.552;13.434;2023-01-13T11:46:50;9.80;99.90
13589;DHT22;6865;52.552;13.434;2023-01-13T11:49:28;9.80;99.90
13589;DHT22;6865;52.552;13.434;2023-01-13T11:52:26;9.90;99.90
13589;DHT22;6865;52.552;13.434;2023-01-13T11:55:25;9.90;99.90
13589;DHT22;6865;52.552;13.434;2023-01-13T11:58:03;9.90;99.90
13589;DHT22;6865;52.552;13.434;2023-01-13T12:00:39;9.90;99.90
13589;DHT22;6865;52.552;13.434;2023-01-13T12:03:28;10.00;99.90
13589;DHT22;6865;52.552;13.434;2023-01-13T12:06:10;9.90;99.90
13589;DHT22;6865;52.552;13.434;2023-01-13T12:09:17;9.90;99.90
13589;DHT22;6865;52.552;13.434;2023-01-13T12:11:58;9.90;99.90
13589;DHT22;6865;52.552;13.434;2023-01-13T12:15:30;9.90;99.90
13589;DHT22;6865;52.552;13.434;2023-01-13T12:20:47;9.90;99.90
13589;DHT22;6865;52.552;13.434;2023-01-13T12:23:36;9.90;99.90
13589;DHT22;6865;52.552;13.434;2023-01-13T12:26:10;10.00;99.90
13589;DHT22;6865;52.552;13.434;2023-01-13T12:28:48;10.10;99.90
13589;DHT22;6865;52.552;13.434;2023-01-13T12:31:17;10.10;99.90
13589;DHT22;6865;52.552;13.434;2023-01-13T12:37:08;10.10;99.90
13589;DHT22;6865;52.552;13.434;2023-01-13T12:42:45;10.00;99.90
13589;DHT22;6865;52.552;13.434;2023-01-13T12:45:32;10.00;99.90
13589;DHT22;6865;52.552;13.434;2023-01-13T12:47:59;10.00;99.90
13589;DHT22;6865;52.552;13.434;2023-01-13T12:52:58;10.00;99.90
13589;DHT22;6865;52.552;13.434;2023-01-13T12:55:35;10.00;99.90
13589;DHT22;6865;52.552;13.434;2023-01-13T12:58:14;10.00;99.90
13589;DHT22;6865;52.552;13.434;2023-01-13T13:05:47;9.90;99.90
13589;DHT22;6865;52.552;13.434;2023-01-13T13:08:49;9.90;99.90
13589;DHT22;6865;52.552;13.434;2023-01-13T13:11:22;9.90;99.90
13589;DHT22;6865;52.552;13.434;2023-01-13T13:14:12;9.90;99.90
13589;DHT22;6865;52.552;13.434;2023-01-13T13:16:50;9.80;99.90
13589;DHT22;6865;52.552;13.434;2023-01-13T13:24:39;9.80;99.90
13589;DHT22;6865;52.552;13.434;2023-01-13T13:35:41;9.90;99.90
13589;DHT22;6865;52.552;13.434;2023-01-13T13:41:24;10.10;99.90
13589;DHT22;6865;52.552;13.434;2023-01-13T13:44:22;10.10;99.90
13589;DHT22;6865;52.552;13.434;2023-01-13T13:47:10;10.00;99.90
13589;DHT22;6865;52.552;13.434;2023-01-13T13:49:41;10.00;99.90
13589;DHT22;6865;52.552;13.434;2023-01-13T13:54:47;10.00;99.90
13589;DHT22;6865;52.552;13.434;2023-01-13T13:57:19;10.00;99.90
13589;DHT22;6865;52.552;13.434;2023-01-13T13:59:52;10.10;99.90
13589;DHT22;6865;52.552;13.434;2023-01-13T14:02:33;10.10;99.90
13589;DHT22;6865;52.552;13.434;2023-01-13T14:07:48;10.00;99.90
13589;DHT22;6865;52.552;13.434;2023-01-13T14:10:20;9.90;99.90
13589;DHT22;6865;52.552;13.434;2023-01-13T14:12:48;9.80;99.90
13589;DHT22;6865;52.552;13.434;2023-01-13T14:15:33;9.70;99.90
13589;DHT22;6865;52.552;13.434;2023-01-13T14:18:03;9.70;99.90
13589;DHT22;6865;52.552;13.434;2023-01-13T14:20:31;9.70;99.90
13589;DHT22;6865;52.552;13.434;2023-01-13T14:23:00;9.60;99.90
13589;DHT22;6865;52.552;13.434;2023-01-13T14:25:35;9.70;99.90
13589;DHT22;6865;52.552;13.434;2023-01-13T14:28:25;9.80;99.90
13589;DHT22;6865;52.552;13.434;2023-01-13T14:30:53;9.40;99.90
13589;DHT22;6865;52.552;13.434;2023-01-13T14:33:33;9.80;99.90
13589;DHT22;6865;52.552;13.434;2023-01-13T14:36:21;9.80;99.90
13589;DHT22;6865;52.552;13.434;2023-01-13T14:41:38;9.80;99.90
13589;DHT22;6865;52.552;13.434;2023-01-13T14:44:33;9.60;99.90
13589;DHT22;6865;52.552;13.434;2023-01-13T14:52:46;9.70;99.90
13589;DHT22;6865;52.552;13.434;2023-01-13T14:57:48;9.80;99.90
13589;DHT22;6865;52.552;13.434;2023-01-13T15:13:39;9.60;99.90
13589;DHT22;6865;52.552;13.434;2023-01-13T15:16:22;9.60;99.90
13589;DHT22;6865;52.552;13.434;2023-01-13T15:18:51;9.60;99.90
13589;DHT22;6865;52.552;13.434;2023-01-13T15:21:18;9.60;99.90
13589;DHT22;6865;52.552;13.434;2023-01-13T15:23:44;9.60;99.90
13589;DHT22;6865;52.552;13.434;2023-01-13T15:28:47;9.60;99.90
13589;DHT22;6865;52.552;13.434;2023-01-13T15:31:17;9.60;99.90
13589;DHT22;6865;52.552;13.434;2023-01-13T15:33:43;9.60;99.90
13589;DHT22;6865;52.552;13.434;2023-01-13T15:36:28;9.50;99.90
13589;DHT22;6865;52.552;13.434;2023-01-13T15:38:55;9.40;99.90
13589;DHT22;6865;52.552;13.434;2023-01-13T15:41:22;9.40;99.90
13589;DHT22;6865;52.552;13.434;2023-01-13T15:44:10;9.40;99.90
13589;DHT22;6865;52.552;13.434;2023-01-13T15:46:57;9.40;99.90
13589;DHT22;6865;52.552;13.434;2023-01-13T15:49:28;9.40;99.90
13589;DHT22;6865;52.552;13.434;2023-01-13T15:52:21;9.40;99.90
13589;DHT22;6865;52.552;13.434;2023-01-13T15:54:49;9.40;99.90
13589;DHT22;6865;52.552;13.434;2023-01-13T15:57:25;9.40;99.90
13589;DHT22;6865;52.552;13.434;2023-01-13T16:00:13;9.40;99.90
13589;DHT22;6865;52.552;13.434;2023-01-13T16:02:40;9.30;99.90
13589;DHT22;6865;52.552;13.434;2023-01-13T16:05:07;9.40;99.90
13589;DHT22;6865;52.552;13.434;2023-01-13T16:07:33;9.30;99.90
13589;DHT22;6865;52.552;13.434;2023-01-13T16:10:01;9.30;99.90
13589;DHT22;6865;52.552;13.434;2023-01-13T16:12:29;9.40;99.90
13589;DHT22;6865;52.552;13.434;2023-01-13T16:14:55;9.40;99.90
13589;DHT22;6865;52.552;13.434;2023-01-13T16:17:24;9.30;99.90
13589;DHT22;6865;52.552;13.434;2023-01-13T16:19:54;9.40;99.90
13589;DHT22;6865;52.552;13.434;2023-01-13T16:22:21;9.30;99.90
13589;DHT22;6865;52.552;13.434;2023-01-13T16:24:48;9.30;99.90
13589;DHT22;6865;52.552;13.434;2023-01-13T16:27:18;9.30;99.90
13589;DHT22;6865;52.552;13.434;2023-01-13T16:29:45;9.40;99.90
13589;DHT22;6865;52.552;13.434;2023-01-13T16:32:13;9.40;99.90
13589;DHT22;6865;52.552;13.434;2023-01-13T16:34:40;9.30;99.90
13589;DHT22;6865;52.552;13.434;2023-01-13T16:37:20;9.40;99.90
13589;DHT22;6865;52.552;13.434;2023-01-13T16:39:48;9.30;99.90
13589;DHT22;6865;52.552;13.434;2023-01-13T16:42:15;9.30;99.90
13589;DHT22;6865;52.552;13.434;2023-01-13T16:44:42;8.90;99.90
13589;DHT22;6865;52.552;13.434;2023-01-13T16:47:14;9.30;99.90
13589;DHT22;6865;52.552;13.434;2023-01-13T16:49:41;9.20;99.90
13589;DHT22;6865;52.552;13.434;2023-01-13T16:52:08;9.30;99.90
13589;DHT22;6865;52.552;13.434;2023-01-13T16:54:37;9.30;99.90
13589;DHT22;6865;52.552;13.434;2023-01-13T16:57:04;9.20;99.90
13589;DHT22;6865;52.552;13.434;2023-01-13T16:59:32;9.30;99.90
13589;DHT22;6865;52.552;13.434;2023-01-13T17:01:59;9.30;99.90
13589;DHT22;6865;52.552;13.434;2023-01-13T17:04:27;9.40;99.90
13589;DHT22;6865;52.552;13.434;2023-01-13T17:06:59;9.30;99.90
13589;DHT22;6865;52.552;13.434;2023-01-13T17:09:27;9.20;99.90
13589;DHT22;6865;52.552;13.434;2023-01-13T17:11:54;9.30;99.90
13589;DHT22;6865;52.552;13.434;2023-01-13T17:14:22;9.30;99.90
13589;DHT22;6865;52.552;13.434;2023-01-13T17:16:51;8.90;99.90
13589;DHT22;6865;52.552;13.434;2023-01-13T17:19:20;9.20;99.90
13589;DHT22;6865;52.552;13.434;2023-01-13T17:21:47;9.10;99.90
13589;DHT22;6865;52.552;13.434;2023-01-13T17:24:16;9.10;99.90
13589;DHT22;6865;52.552;13.434;2023-01-13T17:26:45;9.10;99.90
13589;DHT22;6865;52.552;13.434;2023-01-13T17:29:16;9.10;99.90
13589;DHT22;6865;52.552;13.434;2023-01-13T17:31:44;9.00;99.90
13589;DHT22;6865;52.552;13.434;2023-01-13T17:34:11;9.00;99.90
13589;DHT22;6865;52.552;13.434;2023-01-13T17:36:38;9.00;99.90
13589;DHT22;6865;52.552;13.434;2023-01-13T17:39:05;9.00;99.90
13589;DHT22;6865;52.552;13.434;2023-01-13T17:41:32;8.90;99.90
13589;DHT22;6865;52.552;13.434;2023-01-13T17:43:58;8.80;99.90
13589;DHT22;6865;52.552;13.434;2023-01-13T17:46:25;8.70;99.90
13589;DHT22;6865;52.552;13.434;2023-01-13T17:48:51;8.70;99.90
13589;DHT22;6865;52.552;13.434;2023-01-13T17:51:20;8.70;99.90
13589;DHT22;6865;52.552;13.434;2023-01-13T17:53:48;8.70;99.90
13589;DHT22;6865;52.552;13.434;2023-01-13T17:56:15;8.70;99.90
13589;DHT22;6865;52.552;13.434;2023-01-13T17:58:42;8.60;99.90